createdAt,value
2024-01-21T09:58:46.368Z,-2.50
2024-01-21T10:01:13.566Z,-2.35
2024-01-21T10:03:40.624Z,-2.31
2024-01-21T10:06:07.793Z,-1.95
2024-01-21T10:08:38.258Z,-1.79
2024-01-21T10:11:05.308Z,-1.70
2024-01-21T10:13:32.761Z,-1.87
2024-01-21T10:15:59.638Z,-1.10
2024-01-21T10:18:28.151Z,-1.08
2024-01-21T10:20:59.031Z,-1.02
2024-01-21T10:23:27.243Z,-0.97
2024-01-21T10:25:53.854Z,-0.48
2024-01-21T10:28:21.683Z,-0.21
2024-01-21T10:30:48.824Z,-0.68
2024-01-21T10:33:16.082Z,-0.93
2024-01-21T10:35:43.390Z,-1.04
2024-01-21T10:38:14.603Z,-0.35
2024-01-21T10:40:45.254Z,0.61
2024-01-21T10:43:16.093Z,0.26
2024-01-21T10:45:46.954Z,0.41
2024-01-21T10:48:15.043Z,-0.05
2024-01-21T10:50:43.364Z,0.18
2024-01-21T10:53:14.055Z,0.15
2024-01-21T10:55:41.789Z,-0.57
2024-01-21T10:58:09.875Z,-0.19
2024-01-21T11:00:38.248Z,-0.24
2024-01-21T11:03:28.624Z,-0.60
2024-01-21T11:06:04.288Z,-0.24
2024-01-21T11:08:31.279Z,-0.81
2024-01-21T11:11:01.827Z,-1.10
2024-01-21T11:13:45.131Z,-0.90
2024-01-21T11:16:12.882Z,-1.28
2024-01-21T11:18:39.693Z,-0.91
2024-01-21T11:21:06.509Z,-0.75
2024-01-21T11:23:34.653Z,-1.04
2024-01-21T11:26:01.528Z,-0.65
2024-01-21T11:28:29.706Z,-0.85
2024-01-21T11:31:03.983Z,-1.02
2024-01-21T11:33:31.512Z,-1.28
2024-01-21T11:35:59.937Z,-0.98
2024-01-21T11:38:30.509Z,-0.87
2024-01-21T11:41:08.430Z,-0.96
2024-01-21T11:43:35.085Z,-0.92
2024-01-21T11:46:04.033Z,-1.00
2024-01-21T11:48:31.789Z,-0.88
2024-01-21T11:50:58.844Z,-1.13
2024-01-21T11:53:25.535Z,-0.82
2024-01-21T11:55:52.890Z,-0.98
2024-01-21T11:58:20.122Z,-0.74
2024-01-21T12:00:48.333Z,-1.00
2024-01-21T12:03:15.477Z,-0.64
2024-01-21T12:05:42.781Z,-0.76
2024-01-21T12:08:10.347Z,-0.72
2024-01-21T12:10:37.073Z,-0.63
2024-01-21T12:13:06.400Z,-0.55
2024-01-21T12:15:37.377Z,-0.40
2024-01-21T12:18:04.734Z,-0.89
2024-01-21T12:20:31.471Z,-0.40
2024-01-21T12:22:58.379Z,0.14
2024-01-21T12:25:25.653Z,0.12
2024-01-21T12:28:12.710Z,0.43
2024-01-21T12:30:39.476Z,0.40
2024-01-21T12:33:06.250Z,0.24
2024-01-21T12:35:33.331Z,0.09
2024-01-21T12:38:02.715Z,-0.31
2024-01-21T12:40:29.634Z,0.03
2024-01-21T12:42:56.277Z,0.04
2024-01-21T12:45:23.415Z,0.07
2024-01-21T12:47:50.256Z,-0.07
2024-01-21T12:50:17.177Z,0.18
2024-01-21T12:52:43.859Z,0.45
2024-01-21T12:55:11.694Z,0.39
2024-01-21T12:57:38.654Z,0.31
2024-01-21T13:00:06.090Z,0.10
2024-01-21T13:02:32.725Z,0.15
2024-01-21T13:04:59.373Z,-0.31
2024-01-21T13:07:26.126Z,0.06
2024-01-21T13:09:52.920Z,0.05
2024-01-21T13:12:19.890Z,0.19
2024-01-21T13:14:46.698Z,0.12
2024-01-21T13:17:13.427Z,0.13
2024-01-21T13:19:40.253Z,-0.02
2024-01-21T13:22:08.233Z,-0.08
2024-01-21T13:24:36.199Z,0.16
2024-01-21T13:27:11.002Z,-0.02
2024-01-21T13:29:56.212Z,0.10
2024-01-21T13:32:24.489Z,0.15
2024-01-21T13:34:51.627Z,0.21
2024-01-21T13:37:19.922Z,0.17
2024-01-21T13:39:47.856Z,0.24
2024-01-21T13:42:14.569Z,0.23
2024-01-21T13:44:41.173Z,0.36
2024-01-21T13:47:07.861Z,-0.04
2024-01-21T13:49:36.727Z,0.06
2024-01-21T13:52:03.799Z,0.02
2024-01-21T13:54:30.765Z,0.07
2024-01-21T13:56:57.497Z,0.22
2024-01-21T13:59:24.076Z,0.26
2024-01-21T14:01:57.831Z,-0.01
2024-01-21T14:04:32.468Z,-0.04
2024-01-21T14:06:59.437Z,0.04
2024-01-21T14:09:26.214Z,0.03
2024-01-21T14:11:52.842Z,-0.13
2024-01-21T14:14:19.648Z,0.07
2024-01-21T14:16:46.259Z,-0.12
2024-01-21T14:19:13.205Z,-0.01
2024-01-21T14:21:40.152Z,-0.07
2024-01-21T14:24:07.255Z,-0.16
2024-01-21T14:26:36.708Z,-0.27
2024-01-21T14:29:13.893Z,-0.49
2024-01-21T14:31:41.773Z,-0.52
2024-01-21T14:34:12.916Z,-0.60
2024-01-21T14:36:41.131Z,-0.51
2024-01-21T14:39:07.800Z,-0.63
2024-01-21T14:41:34.502Z,-0.65
2024-01-21T14:44:01.821Z,-0.49
2024-01-21T14:46:28.520Z,-0.62
2024-01-21T14:48:55.346Z,-0.54
2024-01-21T14:51:22.155Z,-0.71
2024-01-21T14:53:48.767Z,-0.76
2024-01-21T14:56:15.508Z,-0.58
2024-01-21T14:58:43.117Z,-0.46
2024-01-21T15:01:09.880Z,-0.49
2024-01-21T15:03:36.710Z,-0.49
2024-01-21T15:06:03.612Z,-0.70
2024-01-21T15:08:30.234Z,-0.46
2024-01-21T15:10:59.805Z,-0.47
2024-01-21T15:13:28.391Z,-0.65
2024-01-21T15:15:55.344Z,-0.42
2024-01-21T15:18:30.333Z,-0.55
2024-01-21T15:21:01.117Z,-0.37
2024-01-21T15:23:27.727Z,-0.36
2024-01-21T15:25:55.777Z,-0.59
2024-01-21T15:28:22.497Z,-0.67
2024-01-21T15:30:49.623Z,-0.64
2024-01-21T15:33:16.494Z,-0.57
2024-01-21T15:35:43.262Z,-0.54
2024-01-21T15:38:11.388Z,-0.80
2024-01-21T15:40:38.151Z,-0.67
2024-01-21T15:43:05.711Z,-1.03
2024-01-21T15:45:32.436Z,-1.14
2024-01-21T15:47:59.223Z,-1.07
2024-01-21T15:50:26.065Z,-1.11
2024-01-21T15:52:52.876Z,-1.37
2024-01-21T15:55:20.815Z,-1.60
2024-01-21T15:57:47.740Z,-1.79
2024-01-21T16:00:14.775Z,-2.06
2024-01-21T16:02:41.490Z,-2.14
2024-01-21T16:05:08.499Z,-2.24
2024-01-21T16:07:35.093Z,-2.07
2024-01-21T16:10:01.943Z,-2.30
2024-01-21T16:12:29.779Z,-2.35
2024-01-21T16:14:56.813Z,-2.40
2024-01-21T16:17:23.479Z,-2.74
2024-01-21T16:19:50.883Z,-2.97
2024-01-21T16:22:18.835Z,-2.91
2024-01-21T16:24:47.385Z,-2.93
2024-01-21T16:27:19.869Z,-3.08
2024-01-21T16:29:53.450Z,-3.17
2024-01-21T16:32:20.323Z,-3.31
2024-01-21T16:34:55.691Z,-3.53
2024-01-21T16:37:27.361Z,-3.74
2024-01-21T16:39:55.648Z,-4.11
2024-01-21T16:42:22.810Z,-4.05
2024-01-21T16:44:51.408Z,-3.97
2024-01-21T16:47:18.389Z,-4.24
2024-01-21T16:49:45.123Z,-4.06
2024-01-21T16:52:16.764Z,-4.12
2024-01-21T16:54:44.291Z,-4.07
2024-01-21T16:57:11.046Z,-4.39
2024-01-21T16:59:39.504Z,-4.31
2024-01-21T17:02:18.847Z,-4.65
2024-01-21T17:04:46.684Z,-4.63
2024-01-21T17:07:13.634Z,-4.60
2024-01-21T17:09:44.997Z,-4.70
2024-01-21T17:12:37.457Z,-4.89
2024-01-21T17:15:05.241Z,-4.93
2024-01-21T17:17:32.099Z,-5.17
2024-01-21T17:19:59.317Z,-5.22
2024-01-21T17:22:26.678Z,-4.98
2024-01-21T17:24:53.362Z,-5.13
2024-01-21T17:27:20.782Z,-5.37
2024-01-21T17:29:47.488Z,-5.39
2024-01-21T17:32:14.342Z,-5.51
2024-01-21T17:34:41.324Z,-5.54
2024-01-21T17:37:08.104Z,-5.61
2024-01-21T17:39:34.840Z,-5.83
2024-01-21T17:42:08.771Z,-5.86
2024-01-21T17:44:36.092Z,-6.02
2024-01-21T17:47:02.775Z,-6.05
2024-01-21T17:49:30.368Z,-6.27
2024-01-21T17:51:57.028Z,-6.22
2024-01-21T17:54:23.706Z,-6.03
2024-01-21T17:56:50.366Z,-6.06
2024-01-21T17:59:17.240Z,-6.05
2024-01-21T18:01:45.106Z,-5.89
2024-01-21T18:04:12.120Z,-6.11
2024-01-21T18:06:39.718Z,-5.68
2024-01-21T18:09:07.501Z,-5.76
2024-01-21T18:11:35.255Z,-5.54
2024-01-21T18:14:02.353Z,-5.73
2024-01-21T18:16:28.958Z,-6.04
2024-01-21T18:18:55.796Z,-6.04
2024-01-21T18:21:24.101Z,-6.18
2024-01-21T18:23:50.974Z,-6.35
2024-01-21T18:26:17.923Z,-6.65
2024-01-21T18:28:46.339Z,-6.40
2024-01-21T18:31:13.876Z,-6.56
2024-01-21T18:33:40.884Z,-6.55
2024-01-21T18:36:08.321Z,-6.43
2024-01-21T18:38:35.093Z,-6.40
2024-01-21T18:41:01.733Z,-6.39
2024-01-21T18:43:28.852Z,-6.20
2024-01-21T18:45:55.711Z,-6.33
2024-01-21T18:48:22.500Z,-6.34
2024-01-21T18:50:49.282Z,-6.24
2024-01-21T18:53:15.905Z,-6.23
2024-01-21T18:55:43.837Z,-6.13
2024-01-21T18:58:15.267Z,-6.18
2024-01-21T19:00:47.812Z,-6.31
2024-01-21T19:03:14.557Z,-6.42
2024-01-21T19:05:41.367Z,-6.47
2024-01-21T19:08:08.640Z,-6.51
2024-01-21T19:10:35.366Z,-6.56
2024-01-21T19:13:02.192Z,-6.59
2024-01-21T19:15:30.937Z,-6.43
2024-01-21T19:17:57.641Z,-6.32
2024-01-21T19:20:24.491Z,-6.37
2024-01-21T19:22:51.299Z,-6.32
2024-01-21T19:25:18.073Z,-6.41
2024-01-21T19:27:44.780Z,-6.44
2024-01-21T19:30:12.262Z,-6.25
2024-01-21T19:32:39.035Z,-6.17
2024-01-21T19:35:06.426Z,-6.03
2024-01-21T19:37:33.075Z,-5.94
2024-01-21T19:39:59.735Z,-6.27
2024-01-21T19:42:26.447Z,-6.04
2024-01-21T19:44:53.164Z,-6.32
2024-01-21T19:47:19.762Z,-6.16
2024-01-21T19:49:46.429Z,-6.24
2024-01-21T19:52:13.063Z,-6.30
2024-01-21T19:54:39.794Z,-6.52
2024-01-21T19:57:06.467Z,-6.44
2024-01-21T19:59:33.293Z,-6.30
2024-01-21T20:01:59.993Z,-6.21
2024-01-21T20:04:26.832Z,-6.31
2024-01-21T20:06:53.786Z,-6.26
2024-01-21T20:09:23.448Z,-6.27
2024-01-21T20:11:50.109Z,-6.42
2024-01-21T20:14:16.873Z,-6.30
2024-01-21T20:16:43.530Z,-6.57
2024-01-21T20:19:10.233Z,-6.57
2024-01-21T20:21:38.707Z,-6.82
2024-01-21T20:24:07.154Z,-6.70
2024-01-21T20:26:33.813Z,-6.95
2024-01-21T20:29:00.480Z,-6.69
2024-01-21T20:31:27.038Z,-7.04
2024-01-21T20:33:56.171Z,-6.87
2024-01-21T20:36:22.988Z,-6.60
2024-01-21T20:38:50.007Z,-6.71
2024-01-21T20:41:17.870Z,-6.69
2024-01-21T20:43:47.480Z,-7.00
2024-01-21T20:46:16.862Z,-6.98
2024-01-21T20:48:44.723Z,-7.04
2024-01-21T20:51:11.893Z,-7.23
2024-01-21T20:53:38.822Z,-7.30
2024-01-21T20:56:08.103Z,-7.05
2024-01-21T20:58:35.803Z,-7.10
2024-01-21T21:01:09.976Z,-7.14
2024-01-21T21:03:40.964Z,-7.06
2024-01-21T21:06:07.766Z,-7.23
2024-01-21T21:08:34.692Z,-7.22
2024-01-21T21:11:02.803Z,-7.41
2024-01-21T21:13:30.209Z,-7.63
2024-01-21T21:15:57.137Z,-7.66
2024-01-21T21:18:24.520Z,-7.62
2024-01-21T21:20:51.330Z,-7.43
2024-01-21T21:23:18.001Z,-7.53
2024-01-21T21:25:44.654Z,-7.27
2024-01-21T21:28:12.071Z,-7.40
2024-01-21T21:30:38.711Z,-7.47
2024-01-21T21:33:05.693Z,-7.43
2024-01-21T21:35:34.000Z,-7.48
2024-01-21T21:38:00.762Z,-7.47
2024-01-21T21:40:27.555Z,-7.60
2024-01-21T21:42:54.182Z,-7.76
2024-01-21T21:45:23.115Z,-7.51
2024-01-21T21:47:51.510Z,-7.62
2024-01-21T21:50:18.356Z,-7.61
2024-01-21T21:52:45.230Z,-7.68
2024-01-21T21:55:11.873Z,-7.85
2024-01-21T21:57:38.948Z,-7.85
2024-01-21T22:00:07.939Z,-7.97
2024-01-21T22:02:35.251Z,-7.98
2024-01-21T22:05:02.263Z,-7.79
2024-01-21T22:07:29.376Z,-8.04
2024-01-21T22:09:56.556Z,-7.91
2024-01-21T22:12:23.563Z,-7.88
2024-01-21T22:14:50.304Z,-8.10
2024-01-21T22:17:17.673Z,-8.01
2024-01-21T22:19:44.719Z,-8.13
2024-01-21T22:22:11.562Z,-8.27
2024-01-21T22:24:41.676Z,-8.27
2024-01-21T22:27:08.461Z,-8.23
2024-01-21T22:29:35.287Z,-7.98
2024-01-21T22:32:02.833Z,-8.04
2024-01-21T22:34:29.493Z,-7.89
2024-01-21T22:36:56.149Z,-7.98
2024-01-21T22:39:22.767Z,-7.75
2024-01-21T22:41:49.522Z,-7.77
2024-01-21T22:44:16.113Z,-7.75
2024-01-21T22:46:43.300Z,-7.67
2024-01-21T22:49:10.182Z,-7.79
2024-01-21T22:51:37.351Z,-7.82
2024-01-21T22:54:04.587Z,-8.05
2024-01-21T22:56:31.349Z,-7.91
2024-01-21T22:58:57.979Z,-7.92
2024-01-21T23:01:24.681Z,-7.94
2024-01-21T23:03:51.396Z,-7.82
2024-01-21T23:06:18.671Z,-7.86
2024-01-21T23:08:45.334Z,-7.83
2024-01-21T23:11:12.721Z,-7.79
2024-01-21T23:13:40.321Z,-7.77
2024-01-21T23:16:07.641Z,-7.84
2024-01-21T23:18:34.378Z,-7.61
2024-01-21T23:21:01.247Z,-7.74
2024-01-21T23:23:27.907Z,-7.84
2024-01-21T23:25:54.590Z,-7.95
2024-01-21T23:28:21.272Z,-7.96
2024-01-21T23:30:48.141Z,-8.18
2024-01-21T23:33:15.173Z,-8.11
2024-01-21T23:35:42.988Z,-8.01
2024-01-21T23:38:09.685Z,-8.18
2024-01-21T23:40:36.321Z,-7.82
2024-01-21T23:43:03.011Z,-7.91
2024-01-21T23:45:29.914Z,-8.00
2024-01-21T23:47:56.568Z,-8.01
2024-01-21T23:50:23.359Z,-8.03
2024-01-21T23:52:50.231Z,-8.21
2024-01-21T23:55:18.467Z,-7.97
2024-01-21T23:57:45.171Z,-8.04
